Time;durP1;ratioP1;P1;durP2;ratioP2;P2;SDS_P1;SDS_P2;PMS_P1;PMS_P2;Temp;Humidity;BMP_temperature;BMP_pressure;BME280_temperature;BME280_humidity;BME280_pressure;Samples;Min_cycle;Max_cycle;Signal;HPM_P1;HPM_P2
2023/11/09 00:01:37;;;;;;;2.47;1.27;;;11.60;99.90;;;;;;5030790;28;20025;-70
2023/11/09 00:04:03;;;;;;;6.50;1.55;;;11.50;99.90;;;;;;5026150;28;20090;-70
2023/11/09 00:06:29;;;;;;;3.80;1.00;;;11.50;99.90;;;;;;5029033;28;20399;-71
2023/11/09 00:08:57;;;;;;;2.60;1.10;;;11.50;99.90;;;;;;5032389;28;20033;-70
2023/11/09 00:11:22;;;;;;;2.83;1.30;;;11.50;99.90;;;;;;5031628;28;20802;-70
2023/11/09 00:13:50;;;;;;;3.60;1.20;;;11.50;99.90;;;;;;5027053;28;20108;-71
2023/11/09 00:16:15;;;;;;;3.03;1.97;;;11.50;99.90;;;;;;5026658;28;20075;-70
2023/11/09 00:18:42;;;;;;;3.47;1.38;;;11.50;99.90;;;;;;5030036;28;21183;-70
2023/11/09 00:21:07;;;;;;;3.40;1.40;;;11.50;99.90;;;;;;5032021;28;20061;-70
2023/11/09 00:23:33;;;;;;;1.85;1.10;;;11.50;99.90;;;;;;5030379;28;20052;-71
2023/11/09 00:26:01;;;;;;;2.13;1.30;;;11.40;99.90;;;;;;5029344;28;20140;-70
2023/11/09 00:28:27;;;;;;;4.55;1.45;;;11.40;99.90;;;;;;5029540;28;20127;-70
2023/11/09 00:30:55;;;;;;;2.63;1.10;;;11.40;99.90;;;;;;5029868;28;20075;-72
2023/11/09 00:33:20;;;;;;;4.95;1.35;;;11.40;99.90;;;;;;5029666;28;20037;-70
2023/11/09 00:35:47;;;;;;;3.53;1.70;;;11.40;99.90;;;;;;5026670;28;20061;-71
2023/11/09 00:38:15;;;;;;;1.33;0.93;;;11.40;99.90;;;;;;5028556;28;20025;-70
2023/11/09 00:40:41;;;;;;;4.22;1.48;;;11.40;99.90;;;;;;5028866;28;20356;-70
2023/11/09 00:43:07;;;;;;;3.08;1.40;;;11.30;99.90;;;;;;5030951;28;20025;-71
2023/11/09 00:45:34;;;;;;;1.58;1.00;;;11.30;99.90;;;;;;5026283;28;20029;-70
2023/11/09 00:48:02;;;;;;;4.07;1.00;;;11.40;99.90;;;;;;5029455;28;20043;-71
2023/11/09 00:50:28;;;;;;;;;;;11.30;99.90;;;;;;5028280;28;20080;-70
2023/11/09 00:52:53;;;;;;;2.35;1.02;;;11.30;99.90;;;;;;5030011;28;20384;-71
2023/11/09 00:55:19;;;;;;;2.65;1.50;;;11.30;99.90;;;;;;5028955;28;20554;-70
2023/11/09 00:57:47;;;;;;;5.75;1.30;;;11.30;99.90;;;;;;5025417;28;20534;-70
2023/11/09 01:00:15;;;;;;;3.10;1.35;;;11.30;99.90;;;;;;5029566;28;20483;-70
2023/11/09 01:02:44;;;;;;;3.08;1.38;;;11.30;99.90;;;;;;5027947;28;20033;-71
2023/11/09 01:05:09;;;;;;;;;;;11.20;99.90;;;;;;5025944;28;20034;-71
2023/11/09 01:07:36;;;;;;;3.92;1.15;;;11.20;99.90;;;;;;5028546;28;19909;-68
2023/11/09 01:10:02;;;;;;;2.33;1.20;;;11.10;99.90;;;;;;5023303;28;20095;-68
2023/11/09 01:12:31;;;;;;;3.30;1.30;;;11.10;99.90;;;;;;5025467;28;20482;-68
2023/11/09 01:14:56;;;;;;;;;;;11.10;99.90;;;;;;5025419;28;20119;-67
2023/11/09 01:17:27;;;;;;;4.22;1.17;;;11.10;99.90;;;;;;5026799;28;20371;-65
2023/11/09 01:19:55;;;;;;;3.30;1.23;;;11.10;99.90;;;;;;5026371;28;20076;-65
2023/11/09 01:22:20;;;;;;;2.30;1.20;;;11.10;99.90;;;;;;5025609;28;20026;-65
2023/11/09 01:24:47;;;;;;;5.38;1.30;;;11.10;99.90;;;;;;5026821;28;20561;-65
2023/11/09 01:27:13;;;;;;;6.72;1.25;;;11.10;99.90;;;;;;5026095;28;20130;-65
2023/11/09 01:29:39;;;;;;;3.22;1.40;;;11.10;99.90;;;;;;5027665;28;20025;-65
2023/11/09 01:32:05;;;;;;;3.28;1.52;;;11.10;99.90;;;;;;5024781;28;20071;-65
2023/11/09 01:34:33;;;;;;;5.25;1.40;;;11.20;99.90;;;;;;5024616;28;20473;-65
2023/11/09 01:36:58;;;;;;;5.63;1.40;;;11.20;99.90;;;;;;5023761;28;20041;-65
2023/11/09 01:39:24;;;;;;;1.90;1.13;;;11.10;99.90;;;;;;5025378;28;20103;-65
2023/11/09 01:41:52;;;;;;;5.05;1.38;;;11.20;99.90;;;;;;5028887;28;20053;-65
2023/11/09 01:44:18;;;;;;;2.42;1.20;;;11.10;99.90;;;;;;5029336;28;20468;-65
2023/11/09 01:46:52;;;;;;;3.88;1.50;;;11.10;99.90;;;;;;5023007;28;20037;-65
2023/11/09 01:49:23;;;;;;;2.80;1.10;;;11.10;99.90;;;;;;5026660;28;20109;-65
2023/11/09 01:51:54;;;;;;;4.40;1.40;;;11.10;99.90;;;;;;5024969;28;20075;-65
2023/11/09 01:54:23;;;;;;;1.42;0.93;;;11.10;99.90;;;;;;5026921;28;20061;-65
2023/11/09 01:56:48;;;;;;;3.90;1.27;;;11.00;99.90;;;;;;5028503;28;20665;-65
2023/11/09 01:59:16;;;;;;;1.85;1.17;;;11.00;99.90;;;;;;5028452;28;20030;-65
2023/11/09 02:01:44;;;;;;;2.85;1.15;;;11.10;99.90;;;;;;5026200;28;20037;-65
2023/11/09 02:04:10;;;;;;;2.88;1.10;;;11.10;99.90;;;;;;5027281;28;20017;-65
2023/11/09 02:06:39;;;;;;;6.88;1.17;;;11.00;99.90;;;;;;5023816;28;20668;-65
2023/11/09 02:09:05;;;;;;;5.53;1.00;;;11.10;99.90;;;;;;5024535;28;20026;-67
2023/11/09 02:11:31;;;;;;;2.42;1.10;;;11.10;99.90;;;;;;5025207;28;20074;-65
2023/11/09 02:13:57;;;;;;;2.13;1.20;;;11.10;99.90;;;;;;5026033;28;20543;-66
2023/11/09 02:16:22;;;;;;;4.22;1.02;;;11.10;99.90;;;;;;5025806;28;20029;-66
2023/11/09 02:18:48;;;;;;;1.65;1.02;;;11.10;99.90;;;;;;5024964;28;20040;-65
2023/11/09 02:21:17;;;;;;;1.70;1.30;;;11.10;99.90;;;;;;5025143;28;20091;-66
2023/11/09 02:23:50;;;;;;;2.17;1.00;;;11.20;99.90;;;;;;5026925;28;20048;-65
2023/11/09 02:26:16;;;;;;;2.85;1.30;;;11.10;99.90;;;;;;5024677;28;20026;-66
2023/11/09 02:28:46;;;;;;;3.47;1.42;;;11.10;99.90;;;;;;5027693;28;20514;-66
2023/11/09 02:31:14;;;;;;;2.45;0.88;;;11.20;99.90;;;;;;5025940;28;20504;-66
2023/11/09 02:33:42;;;;;;;3.33;1.30;;;11.10;99.90;;;;;;5025432;28;20605;-66
2023/11/09 02:36:08;;;;;;;2.67;0.98;;;11.10;99.90;;;;;;5027023;28;20112;-66
2023/11/09 02:38:36;;;;;;;1.80;1.02;;;11.20;99.90;;;;;;5027296;28;20017;-66
2023/11/09 02:41:06;;;;;;;3.60;1.10;;;11.20;99.90;;;;;;5025901;28;20021;-66
2023/11/09 02:43:31;;;;;;;1.70;1.13;;;11.10;99.90;;;;;;5026645;28;20080;-66
2023/11/09 02:45:57;;;;;;;2.15;1.13;;;11.10;99.90;;;;;;5023484;28;21415;-66
2023/11/09 02:48:24;;;;;;;4.28;1.10;;;11.20;99.90;;;;;;5025101;28;20031;-66
2023/11/09 02:50:51;;;;;;;1.73;1.30;;;11.10;99.90;;;;;;5022567;28;20056;-66
2023/11/09 02:53:17;;;;;;;4.90;1.27;;;11.20;99.90;;;;;;5026441;28;20072;-66
2023/11/09 02:55:42;;;;;;;2.13;0.98;;;11.20;99.90;;;;;;5024899;28;20467;-66
2023/11/09 02:58:11;;;;;;;1.33;1.13;;;11.20;99.90;;;;;;5025447;28;20025;-66
2023/11/09 03:00:39;;;;;;;5.07;1.50;;;11.10;99.90;;;;;;5023856;28;20111;-66
2023/11/09 03:03:06;;;;;;;2.15;1.33;;;11.20;99.90;;;;;;5023291;28;20116;-66
2023/11/09 03:05:32;;;;;;;3.28;1.10;;;11.20;99.90;;;;;;5024462;28;20050;-67
2023/11/09 03:07:59;;;;;;;1.52;1.10;;;11.30;99.90;;;;;;5025007;28;20467;-67
2023/11/09 03:10:24;;;;;;;2.33;1.17;;;11.20;99.90;;;;;;5023283;28;20030;-66
2023/11/09 03:12:55;;;;;;;1.33;0.90;;;11.30;99.90;;;;;;5026333;28;20038;-67
2023/11/09 03:15:22;;;;;;;2.58;1.52;;;11.30;99.90;;;;;;5027401;28;20075;-66
2023/11/09 03:17:47;;;;;;;3.35;1.23;;;11.30;99.90;;;;;;5021018;28;20041;-67
2023/11/09 03:20:15;;;;;;;4.50;1.25;;;11.30;99.90;;;;;;5024676;28;20033;-67
2023/11/09 03:22:43;;;;;;;;;;;11.20;99.90;;;;;;5023946;28;20112;-66
2023/11/09 03:25:11;;;;;;;1.65;1.02;;;11.30;99.90;;;;;;5021731;28;20036;-66
2023/11/09 03:27:39;;;;;;;4.10;1.30;;;11.20;99.90;;;;;;5023868;28;20112;-66
2023/11/09 03:30:05;;;;;;;;;;;11.20;99.90;;;;;;5024362;28;20510;-66
2023/11/09 03:32:30;;;;;;;3.60;1.30;;;11.20;99.90;;;;;;5021400;28;19948;-67
2023/11/09 03:34:56;;;;;;;6.35;1.35;;;11.20;99.90;;;;;;5027054;28;20033;-67
2023/11/09 03:37:24;;;;;;;2.15;0.90;;;11.30;99.90;;;;;;5023897;28;20109;-66
2023/11/09 03:39:50;;;;;;;4.30;1.42;;;11.20;99.90;;;;;;5024637;28;20030;-66
2023/11/09 03:42:16;;;;;;;3.28;1.27;;;11.20;99.90;;;;;;5022680;28;20048;-67
2023/11/09 03:44:43;;;;;;;2.70;1.40;;;11.20;99.90;;;;;;5027121;28;20034;-66
2023/11/09 03:47:08;;;;;;;3.60;1.20;;;11.20;99.90;;;;;;5024568;28;20033;-67
2023/11/09 03:49:39;;;;;;;2.17;1.10;;;11.30;99.90;;;;;;5024717;28;20029;-67
2023/11/09 03:52:07;;;;;;;2.83;1.17;;;11.30;99.90;;;;;;5020177;28;20798;-67
2023/11/09 03:54:33;;;;;;;;;;;11.20;99.90;;;;;;5025116;28;20021;-66
2023/11/09 03:57:00;;;;;;;2.33;1.30;;;11.20;99.90;;;;;;5025005;28;19991;-67
2023/11/09 03:59:26;;;;;;;2.67;1.35;;;11.20;99.90;;;;;;5016844;28;20482;-67
2023/11/09 04:01:53;;;;;;;2.25;1.48;;;11.10;99.90;;;;;;5023105;28;20042;-67
2023/11/09 04:04:20;;;;;;;2.97;1.65;;;11.10;99.90;;;;;;5022475;28;20100;-66
2023/11/09 04:06:47;;;;;;;3.17;1.40;;;11.00;99.90;;;;;;5025912;28;20033;-67
2023/11/09 04:09:14;;;;;;;3.88;1.50;;;11.00;99.90;;;;;;5026585;28;20029;-67
2023/11/09 04:11:42;;;;;;;4.82;1.60;;;11.00;99.90;;;;;;5024125;28;20057;-67
2023/11/09 04:14:13;;;;;;;4.97;1.55;;;11.00;99.90;;;;;;5024500;28;20033;-66
2023/11/09 04:16:41;;;;;;;3.25;1.60;;;11.00;99.90;;;;;;5027355;28;20032;-66
2023/11/09 04:19:12;;;;;;;4.20;1.67;;;10.90;99.90;;;;;;5030692;28;20022;-67
2023/11/09 04:21:38;;;;;;;3.20;1.48;;;10.90;99.90;;;;;;5025824;28;20375;-66
2023/11/09 04:24:05;;;;;;;3.47;1.60;;;10.90;99.90;;;;;;5029068;28;20045;-67
2023/11/09 04:26:35;;;;;;;3.17;1.73;;;10.90;99.90;;;;;;5024810;28;20037;-67
2023/11/09 04:29:04;;;;;;;2.50;1.40;;;10.90;99.90;;;;;;5024190;28;20034;-66
2023/11/09 04:31:31;;;;;;;4.45;1.70;;;10.90;99.90;;;;;;5027108;28;20030;-66
2023/11/09 04:34:08;;;;;;;3.10;1.60;;;10.90;99.90;;;;;;5027840;28;20048;-66
2023/11/09 04:36:40;;;;;;;4.78;1.27;;;10.90;99.90;;;;;;5027306;28;20021;-66
2023/11/09 04:39:07;;;;;;;3.92;1.45;;;10.90;99.90;;;;;;5027356;28;20026;-66
2023/11/09 04:41:35;;;;;;;3.78;1.40;;;10.80;99.90;;;;;;5029691;28;20025;-66
2023/11/09 04:44:01;;;;;;;4.18;1.40;;;10.80;99.90;;;;;;5025860;28;20041;-66
2023/11/09 04:46:28;;;;;;;3.03;1.33;;;10.90;99.90;;;;;;5026511;28;20391;-66
2023/11/09 04:48:57;;;;;;;3.10;1.48;;;10.80;99.90;;;;;;5027317;28;20059;-66
2023/11/09 04:51:32;;;;;;;4.10;1.40;;;10.80;99.90;;;;;;5026343;28;20045;-67
2023/11/09 04:54:06;;;;;;;2.53;1.27;;;10.80;99.90;;;;;;5027915;28;20033;-67
2023/11/09 04:57:03;;;;;;;3.45;1.42;;;10.80;99.90;;;;;;5028579;28;20033;-67
2023/11/09 05:07:27;;;;;;;5.22;1.45;;;10.80;99.90;;;;;;5028003;28;20087;-67
2023/11/09 05:09:56;;;;;;;1.95;1.40;;;10.80;99.90;;;;;;5028361;28;20076;-66
2023/11/09 05:12:21;;;;;;;4.32;1.50;;;10.80;99.90;;;;;;5028648;28;20087;-67
2023/11/09 05:14:48;;;;;;;4.30;1.60;;;10.80;99.90;;;;;;5027382;28;20030;-66
2023/11/09 05:17:13;;;;;;;6.43;1.75;;;10.80;99.90;;;;;;5024194;28;20091;-67
2023/11/09 05:19:43;;;;;;;5.70;1.38;;;10.70;99.90;;;;;;5028604;28;20541;-66
2023/11/09 05:22:12;;;;;;;3.35;1.80;;;10.80;99.90;;;;;;5025142;28;20064;-66
2023/11/09 05:24:44;;;;;;;13.50;1.60;;;10.80;99.90;;;;;;5028544;28;20053;-66
2023/11/09 05:27:10;;;;;;;2.97;1.50;;;10.70;99.90;;;;;;5025502;28;20030;-66
2023/11/09 05:29:36;;;;;;;4.00;1.45;;;10.70;99.90;;;;;;5026548;28;20079;-65
2023/11/09 05:32:08;;;;;;;2.28;1.08;;;10.70;99.90;;;;;;5025597;28;20021;-65
2023/11/09 05:34:37;;;;;;;5.63;1.45;;;10.80;99.90;;;;;;5024457;28;20034;-66
2023/11/09 05:37:06;;;;;;;3.33;1.25;;;10.80;99.90;;;;;;5024110;28;20030;-65
2023/11/09 05:39:32;;;;;;;6.20;1.70;;;10.80;99.90;;;;;;5029208;28;20022;-65
2023/11/09 05:42:03;;;;;;;5.95;1.42;;;10.80;99.90;;;;;;5025631;28;20095;-66
2023/11/09 05:44:29;;;;;;;4.13;1.70;;;10.80;99.90;;;;;;5026184;28;20013;-65
2023/11/09 05:46:55;;;;;;;3.30;1.42;;;10.80;99.90;;;;;;5026339;28;20113;-65
2023/11/09 05:49:22;;;;;;;5.13;1.33;;;10.80;99.90;;;;;;5028280;28;20443;-66
2023/11/09 05:51:49;;;;;;;5.20;1.50;;;10.80;99.90;;;;;;5025477;28;20021;-65
2023/11/09 05:54:15;;;;;;;1.80;1.15;;;10.80;99.90;;;;;;5021864;28;20806;-65
2023/11/09 05:56:41;;;;;;;2.63;1.08;;;10.80;99.90;;;;;;5028490;28;20029;-66
2023/11/09 05:59:09;;;;;;;5.43;1.33;;;10.80;99.90;;;;;;5026361;28;20017;-65
2023/11/09 06:01:37;;;;;;;2.53;1.23;;;10.80;99.90;;;;;;5026117;28;20428;-67
2023/11/09 06:04:05;;;;;;;4.60;1.43;;;10.80;99.90;;;;;;5026489;28;20037;-67
2023/11/09 06:06:31;;;;;;;3.83;1.65;;;10.90;99.90;;;;;;5025726;28;20278;-66
2023/11/09 06:08:57;;;;;;;4.70;1.48;;;10.90;99.90;;;;;;5026733;28;20049;-66
2023/11/09 06:11:24;;;;;;;3.65;1.50;;;10.90;99.90;;;;;;5025576;28;20059;-66
2023/11/09 06:13:51;;;;;;;4.07;1.48;;;10.90;99.90;;;;;;5023494;28;20065;-67
2023/11/09 06:16:18;;;;;;;4.00;1.45;;;10.90;99.90;;;;;;5029181;28;20034;-67
2023/11/09 06:18:43;;;;;;;3.10;1.35;;;10.90;99.90;;;;;;5026017;28;20071;-66
2023/11/09 06:21:09;;;;;;;2.45;1.20;;;10.90;99.90;;;;;;4989179;28;20054;-67
2023/11/09 06:23:37;;;;;;;4.90;1.52;;;10.90;99.90;;;;;;4989190;28;20030;-66
2023/11/09 06:26:05;;;;;;;2.47;1.48;;;10.90;99.90;;;;;;4989372;28;20448;-67
2023/11/09 06:28:31;;;;;;;2.97;1.55;;;10.90;99.90;;;;;;4983651;28;20030;-67
2023/11/09 06:30:57;;;;;;;4.40;1.33;;;11.00;99.90;;;;;;4986432;28;20089;-66
2023/11/09 06:33:24;;;;;;;4.15;1.77;;;10.90;99.90;;;;;;4985445;28;20453;-67
2023/11/09 06:35:52;;;;;;;4.30;1.70;;;10.90;99.90;;;;;;4985653;28;20065;-66
2023/11/09 06:38:19;;;;;;;8.65;1.77;;;10.90;99.90;;;;;;4988786;28;20039;-66
2023/11/09 06:40:46;;;;;;;3.50;1.40;;;10.90;99.90;;;;;;4986802;28;20029;-66
2023/11/09 06:43:13;;;;;;;2.75;1.30;;;10.90;99.90;;;;;;4988168;28;20019;-67
2023/11/09 06:45:41;;;;;;;2.53;1.23;;;11.00;99.90;;;;;;4986562;28;20132;-66
2023/11/09 06:48:08;;;;;;;2.45;1.38;;;11.00;99.90;;;;;;4983080;28;20507;-67
2023/11/09 06:50:35;;;;;;;6.68;1.20;;;11.00;99.90;;;;;;4985863;28;20073;-67
2023/11/09 06:53:01;;;;;;;3.83;1.63;;;11.00;99.90;;;;;;4985895;28;20026;-66
2023/11/09 06:55:29;;;;;;;6.88;2.03;;;11.00;99.90;;;;;;4982473;28;20692;-67
2023/11/09 06:57:57;;;;;;;2.03;1.33;;;10.90;99.90;;;;;;4986552;28;20037;-67
2023/11/09 07:00:25;;;;;;;2.65;1.23;;;11.00;99.90;;;;;;4988957;28;20386;-67
2023/11/09 07:02:51;;;;;;;6.63;1.83;;;11.00;99.90;;;;;;4976246;28;20069;-67
2023/11/09 07:05:17;;;;;;;4.72;1.92;;;11.00;99.90;;;;;;4983491;28;20022;-67
2023/11/09 07:07:42;;;;;;;4.57;1.80;;;11.00;99.90;;;;;;4985197;28;20041;-67
2023/11/09 07:10:09;;;;;;;4.03;1.35;;;11.00;99.90;;;;;;4988715;28;20030;-67
2023/11/09 07:12:37;;;;;;;5.97;1.67;;;11.00;99.90;;;;;;4989731;28;20030;-67
2023/11/09 07:15:04;;;;;;;6.50;1.83;;;11.00;99.90;;;;;;4983712;28;20037;-67
2023/11/09 07:17:29;;;;;;;2.97;1.50;;;11.00;99.90;;;;;;4982391;28;20022;-67
2023/11/09 07:19:59;;;;;;;3.85;1.88;;;11.00;99.90;;;;;;4974674;28;20513;-67
2023/11/09 07:22:26;;;;;;;4.53;1.58;;;11.00;99.90;;;;;;4985061;28;20113;-67
2023/11/09 07:25:00;;;;;;;4.55;1.42;;;11.00;99.90;;;;;;4981033;28;20054;-67
2023/11/09 07:27:25;;;;;;;6.68;1.73;;;11.00;99.90;;;;;;4986961;28;20038;-67
2023/11/09 07:29:51;;;;;;;8.35;1.48;;;11.00;99.90;;;;;;4988116;28;20027;-67
2023/11/09 07:32:17;;;;;;;2.50;1.20;;;11.00;99.90;;;;;;4986922;28;20030;-66
2023/11/09 07:34:48;;;;;;;4.22;1.48;;;11.00;99.90;;;;;;4983520;28;20057;-66
2023/11/09 07:37:14;;;;;;;3.03;1.52;;;11.00;99.90;;;;;;4989263;28;20481;-67
2023/11/09 07:39:40;;;;;;;2.28;1.27;;;11.00;99.90;;;;;;4983932;28;20110;-66
2023/11/09 07:42:06;;;;;;;3.45;1.42;;;11.10;99.90;;;;;;4977889;28;20683;-67
2023/11/09 07:44:32;;;;;;;1.75;1.20;;;11.00;99.90;;;;;;4982684;28;20030;-66
2023/11/09 07:47:02;;;;;;;2.92;1.40;;;11.10;99.90;;;;;;4978498;28;20094;-67
2023/11/09 07:49:30;;;;;;;2.33;1.30;;;11.10;99.90;;;;;;4984407;28;20022;-67
2023/11/09 07:52:03;;;;;;;2.20;1.17;;;11.10;99.90;;;;;;4986769;28;20058;-67
2023/11/09 07:54:29;;;;;;;2.60;1.27;;;11.10;99.90;;;;;;4989195;28;20068;-67
2023/11/09 07:56:59;;;;;;;2.88;1.45;;;11.10;99.90;;;;;;4981502;28;20069;-67
2023/11/09 07:59:26;;;;;;;2.15;1.35;;;11.10;99.90;;;;;;5000996;28;20026;-67
2023/11/09 08:01:52;;;;;;;6.00;1.50;;;11.10;99.90;;;;;;4983335;28;20497;-67
2023/11/09 08:04:21;;;;;;;4.22;1.60;;;11.10;99.90;;;;;;4987805;28;20052;-67
2023/11/09 08:06:49;;;;;;;2.22;1.35;;;11.20;99.90;;;;;;4984494;28;20564;-66
2023/11/09 08:09:19;;;;;;;4.53;1.48;;;11.20;99.90;;;;;;4980223;28;20377;-67
2023/11/09 08:11:48;;;;;;;4.78;1.80;;;11.20;99.90;;;;;;4987897;28;20030;-67
2023/11/09 08:14:14;;;;;;;7.72;1.25;;;11.20;99.90;;;;;;4989008;28;20372;-67
2023/11/09 08:16:39;;;;;;;4.32;1.77;;;11.30;99.90;;;;;;4984388;28;20023;-67
2023/11/09 08:19:05;;;;;;;3.50;1.52;;;11.30;99.90;;;;;;4983031;28;20027;-66
2023/11/09 08:21:33;;;;;;;2.58;1.30;;;11.30;99.90;;;;;;4986785;28;20026;-67
2023/11/09 08:23:59;;;;;;;4.15;1.33;;;11.40;99.90;;;;;;4985996;28;20034;-67
2023/11/09 08:26:29;;;;;;;5.18;1.67;;;11.30;99.90;;;;;;4989033;28;20531;-67
2023/11/09 08:28:58;;;;;;;3.40;1.83;;;11.30;99.90;;;;;;4985440;28;20499;-67
2023/11/09 08:31:25;;;;;;;2.58;1.50;;;11.30;99.90;;;;;;4987392;28;20030;-66
2023/11/09 08:33:54;;;;;;;4.37;1.57;;;11.30;99.90;;;;;;4981691;28;20053;-67
2023/11/09 08:36:24;;;;;;;3.50;1.45;;;11.30;99.90;;;;;;4981827;28;20662;-67
2023/11/09 08:38:50;;;;;;;2.97;1.30;;;11.40;99.90;;;;;;4993298;28;20066;-67
2023/11/09 08:41:21;;;;;;;5.75;1.05;;;11.30;99.90;;;;;;4989335;28;20472;-67
2023/11/09 08:43:49;;;;;;;2.75;1.10;;;11.30;99.90;;;;;;4986044;28;20037;-68
2023/11/09 08:46:16;;;;;;;6.05;1.90;;;11.30;99.90;;;;;;4979303;28;20489;-66
2023/11/09 08:48:41;;;;;;;3.10;1.63;;;11.40;99.90;;;;;;4988714;28;20534;-66
2023/11/09 08:51:13;;;;;;;3.92;1.30;;;11.40;99.90;;;;;;4989981;28;20034;-67
2023/11/09 08:53:42;;;;;;;5.13;1.45;;;11.40;99.90;;;;;;4989151;28;20034;-66
2023/11/09 08:56:11;;;;;;;3.45;1.08;;;11.40;99.90;;;;;;4982558;28;20496;-67
2023/11/09 08:58:38;;;;;;;12.27;1.63;;;11.40;99.90;;;;;;4974255;28;20039;-66
2023/11/09 09:01:16;;;;;;;4.57;1.60;;;11.40;99.90;;;;;;4982525;28;20583;-67
2023/11/09 09:03:49;;;;;;;;;;;11.50;99.90;;;;;;4983654;28;20284;-67
2023/11/09 09:06:16;;;;;;;2.28;1.52;;;11.50;99.90;;;;;;4985519;28;21797;-67
2023/11/09 09:08:42;;;;;;;2.45;1.13;;;11.50;99.90;;;;;;4975883;28;20050;-67
2023/11/09 09:11:11;;;;;;;3.38;1.30;;;11.60;99.90;;;;;;4994787;23;20042;-70
2023/11/09 09:13:36;;;;;;;3.38;1.27;;;11.60;99.90;;;;;;4988437;28;20038;-69
2023/11/09 09:16:02;;;;;;;3.15;1.30;;;11.60;99.90;;;;;;4986716;28;20581;-69
2023/11/09 09:18:28;;;;;;;4.35;1.38;;;11.60;99.90;;;;;;4988547;28;20034;-70
2023/11/09 09:20:54;;;;;;;3.63;1.60;;;11.60;99.90;;;;;;4988392;28;20089;-69
2023/11/09 09:23:22;;;;;;;2.20;1.00;;;11.60;99.90;;;;;;4990914;28;20417;-69
2023/11/09 09:25:48;;;;;;;4.10;1.15;;;11.60;99.90;;;;;;4989764;28;20034;-69
2023/11/09 09:28:16;;;;;;;4.78;1.08;;;11.60;99.90;;;;;;4988536;28;20026;-69
2023/11/09 09:30:42;;;;;;;3.53;1.02;;;11.60;99.90;;;;;;4987698;28;20031;-69
2023/11/09 09:33:08;;;;;;;4.75;1.40;;;11.70;99.90;;;;;;4986795;28;20034;-69
2023/11/09 09:35:33;;;;;;;4.50;1.38;;;11.70;99.90;;;;;;4987806;28;20798;-70
2023/11/09 09:38:01;;;;;;;2.92;1.38;;;11.60;99.90;;;;;;4990966;28;20473;-71
2023/11/09 09:40:32;;;;;;;;;;;11.60;99.90;;;;;;4987115;28;20477;-70
2023/11/09 09:43:00;;;;;;;4.18;1.52;;;11.60;99.90;;;;;;4988664;28;20028;-70
2023/11/09 09:45:27;;;;;;;1.58;1.00;;;11.60;99.90;;;;;;4987871;28;20026;-70
2023/11/09 09:47:59;;;;;;;2.42;1.30;;;11.70;99.90;;;;;;4983818;28;20121;-70
2023/11/09 09:50:37;;;;;;;5.32;1.27;;;11.60;99.90;;;;;;4986100;28;20046;-70
2023/11/09 09:53:09;;;;;;;3.90;1.30;;;11.60;99.90;;;;;;4986800;28;20121;-70
2023/11/09 09:55:37;;;;;;;3.92;1.70;;;11.60;99.90;;;;;;4987478;28;20057;-70
2023/11/09 09:58:05;;;;;;;4.15;1.30;;;11.60;99.90;;;;;;4988353;28;20677;-70
2023/11/09 10:00:31;;;;;;;;;;;11.60;99.90;;;;;;4987970;28;20026;-70
2023/11/09 10:02:59;;;;;;;4.05;1.20;;;11.50;99.90;;;;;;4988462;28;19964;-71
2023/11/09 10:05:27;;;;;;;3.85;1.45;;;11.50;99.90;;;;;;4987762;28;20502;-70
2023/11/09 10:08:04;;;;;;;2.83;1.15;;;11.50;99.90;;;;;;4985518;28;20023;-71
2023/11/09 10:10:34;;;;;;;1.83;1.20;;;11.50;99.90;;;;;;4985774;28;20042;-70
2023/11/09 10:13:15;;;;;;;4.68;1.55;;;11.50;99.90;;;;;;4984653;28;20108;-71
2023/11/09 10:15:45;;;;;;;2.13;1.08;;;11.40;99.90;;;;;;4988335;28;20033;-71
2023/11/09 10:18:12;;;;;;;1.75;0.98;;;11.40;99.90;;;;;;4989036;28;20022;-70
2023/11/09 10:20:41;;;;;;;1.70;1.10;;;11.40;99.90;;;;;;4987692;28;20673;-71
2023/11/09 10:23:14;;;;;;;5.90;0.93;;;11.40;99.90;;;;;;4984619;28;20050;-70
2023/11/09 10:25:42;;;;;;;1.15;1.02;;;11.40;99.90;;;;;;4988045;28;20026;-71
2023/11/09 10:28:11;;;;;;;;;;;11.40;99.90;;;;;;4986322;28;20464;-71
2023/11/09 10:30:41;;;;;;;1.88;1.23;;;11.40;99.90;;;;;;4989771;28;19918;-70
2023/11/09 10:33:07;;;;;;;6.10;0.90;;;11.40;99.90;;;;;;4993927;28;20037;-70
2023/11/09 10:35:34;;;;;;;1.42;1.00;;;11.40;99.90;;;;;;4985651;28;20034;-72
2023/11/09 10:38:08;;;;;;;2.95;1.02;;;11.50;99.90;;;;;;4984834;28;20495;-70
2023/11/09 10:40:34;;;;;;;1.00;0.90;;;11.40;99.90;;;;;;4982755;28;20022;-70
2023/11/09 10:43:00;;;;;;;2.45;1.30;;;11.50;99.90;;;;;;4984110;28;20035;-70
2023/11/09 10:45:30;;;;;;;1.88;1.00;;;11.40;99.90;;;;;;4985857;28;20033;-70
2023/11/09 10:47:59;;;;;;;1.73;0.88;;;11.60;99.90;;;;;;4987155;28;20034;-70
2023/11/09 10:50:26;;;;;;;1.30;0.90;;;11.50;99.90;;;;;;4985341;28;20034;-70
2023/11/09 10:52:56;;;;;;;1.67;0.90;;;11.50;99.90;;;;;;4984160;28;20165;-70
2023/11/09 10:55:25;;;;;;;1.73;0.80;;;11.60;99.90;;;;;;4988013;28;20022;-70
2023/11/09 10:57:52;;;;;;;2.45;0.88;;;11.50;99.90;;;;;;4984019;28;20053;-71
2023/11/09 11:00:31;;;;;;;0.68;0.68;;;11.50;99.90;;;;;;4984961;28;20041;-70
2023/11/09 11:03:08;;;;;;;2.65;1.00;;;11.50;99.90;;;;;;4985677;28;20102;-70
2023/11/09 11:05:42;;;;;;;2.33;0.88;;;11.60;99.90;;;;;;4985511;28;20468;-70
2023/11/09 11:08:15;;;;;;;1.35;0.50;;;11.60;99.90;;;;;;4986187;28;20044;-70
2023/11/09 11:10:51;;;;;;;4.22;0.60;;;11.60;99.90;;;;;;4987406;28;20030;-70
2023/11/09 11:13:24;;;;;;;0.93;0.73;;;11.60;99.90;;;;;;4989380;28;20092;-71
2023/11/09 11:16:10;;;;;;;1.48;0.80;;;11.60;99.90;;;;;;4984651;28;20030;-71
2023/11/09 11:18:56;;;;;;;1.00;0.60;;;11.60;99.90;;;;;;4984883;28;20030;-70
2023/11/09 11:21:52;;;;;;;0.73;0.73;;;11.70;99.90;;;;;;4985817;28;20019;-71
2023/11/09 11:24:37;;;;;;;4.10;2.22;;;11.60;99.90;;;;;;4985887;28;20065;-70
2023/11/09 11:27:30;;;;;;;1.75;0.82;;;11.60;99.90;;;;;;4991739;28;20030;-70
2023/11/09 11:29:56;;;;;;;0.50;0.50;;;11.60;99.90;;;;;;4989724;28;20122;-70
2023/11/09 11:32:32;;;;;;;1.50;0.40;;;11.60;99.90;;;;;;4993081;28;20181;-70
2023/11/09 11:35:00;;;;;;;1.48;0.90;;;11.60;99.90;;;;;;4986371;28;20026;-70
2023/11/09 11:37:31;;;;;;;1.33;0.63;;;11.60;99.90;;;;;;4989718;28;20018;-70
2023/11/09 11:40:08;;;;;;;0.95;0.63;;;11.60;99.90;;;;;;4990006;28;20026;-70
2023/11/09 11:42:39;;;;;;;1.25;0.60;;;11.60;99.90;;;;;;4992125;28;20370;-70
2023/11/09 11:45:07;;;;;;;2.47;0.93;;;11.60;99.90;;;;;;4991508;28;20170;-70
2023/11/09 11:47:34;;;;;;;1.10;0.80;;;11.70;99.90;;;;;;4992107;28;20049;-70
2023/11/09 11:50:04;;;;;;;0.87;0.57;;;11.70;99.90;;;;;;4991753;28;20116;-70
2023/11/09 11:52:33;;;;;;;1.75;0.80;;;11.70;99.90;;;;;;4988546;28;20029;-70
2023/11/09 11:55:00;;;;;;;1.65;0.68;;;11.80;99.90;;;;;;4990951;28;20029;-70
2023/11/09 11:57:34;;;;;;;3.38;0.80;;;11.70;99.90;;;;;;4992072;28;20014;-70
2023/11/09 12:00:08;;;;;;;1.02;0.70;;;11.80;99.90;;;;;;4990275;28;20035;-70
2023/11/09 12:02:38;;;;;;;4.45;0.63;;;11.80;99.90;;;;;;4990323;28;20034;-70
2023/11/09 12:05:06;;;;;;;2.17;0.82;;;11.80;99.90;;;;;;4992886;28;20030;-70
2023/11/09 12:07:35;;;;;;;;;;;11.80;99.90;;;;;;4992088;28;20025;-71
2023/11/09 12:10:01;;;;;;;2.00;0.65;;;11.80;99.90;;;;;;4990736;28;19929;-71
2023/11/09 12:12:26;;;;;;;2.97;0.75;;;11.80;99.90;;;;;;4981613;28;20073;-71
2023/11/09 12:14:54;;;;;;;3.40;0.80;;;11.70;99.90;;;;;;4992674;28;20554;-70
2023/11/09 12:17:23;;;;;;;1.60;0.80;;;11.70;99.90;;;;;;4992255;28;20018;-70
2023/11/09 12:19:49;;;;;;;0.60;0.60;;;11.80;99.90;;;;;;4991258;28;20036;-70
2023/11/09 12:22:15;;;;;;;1.55;0.80;;;11.90;99.90;;;;;;4986372;28;20041;-70
2023/11/09 12:24:41;;;;;;;4.20;0.88;;;11.80;99.90;;;;;;4990871;28;20505;-70
2023/11/09 12:27:10;;;;;;;0.60;0.60;;;11.80;99.90;;;;;;4987179;28;20054;-71
2023/11/09 12:29:41;;;;;;;2.47;0.90;;;11.80;99.90;;;;;;4987850;28;20110;-71
2023/11/09 12:32:11;;;;;;;1.55;0.77;;;11.80;99.90;;;;;;4991144;28;20499;-71
2023/11/09 12:34:39;;;;;;;2.17;1.25;;;11.80;99.90;;;;;;4992876;28;20036;-70
2023/11/09 12:37:11;;;;;;;1.77;0.90;;;11.80;99.90;;;;;;4991662;28;20096;-70
2023/11/09 12:39:37;;;;;;;1.85;1.13;;;11.90;99.90;;;;;;4989059;28;20046;-71
2023/11/09 12:42:05;;;;;;;1.73;0.75;;;11.90;99.90;;;;;;4987375;28;20034;-72
2023/11/09 12:44:34;;;;;;;2.35;0.80;;;11.80;99.90;;;;;;4989297;28;20030;-70
2023/11/09 12:47:09;;;;;;;0.80;0.60;;;11.80;99.90;;;;;;4988795;28;20037;-71
2023/11/09 12:49:35;;;;;;;2.00;0.90;;;11.90;99.90;;;;;;4991506;28;20027;-71
2023/11/09 12:52:05;;;;;;;1.42;0.80;;;11.90;99.90;;;;;;4972443;28;20082;-71
2023/11/09 12:54:32;;;;;;;2.15;0.73;;;11.90;99.90;;;;;;4991791;28;20029;-71
2023/11/09 12:56:59;;;;;;;1.80;0.70;;;12.00;99.90;;;;;;4990228;28;20583;-70
2023/11/09 12:59:28;;;;;;;0.98;0.80;;;12.00;99.90;;;;;;4984872;28;20081;-71
2023/11/09 13:02:03;;;;;;;3.63;0.77;;;12.00;99.90;;;;;;4990879;28;20511;-70
2023/11/09 13:04:37;;;;;;;1.63;0.70;;;12.00;99.90;;;;;;4990867;28;20023;-70